sensor_id;sensor_type;location;lat;lon;timestamp;temperature;humidity
8994;DHT22;4532;50.886;4.700;2022-08-25T00:00:21;27.00;91.00
8994;DHT22;4532;50.886;4.700;2022-08-25T00:02:53;27.00;91.10
8994;DHT22;4532;50.886;4.700;2022-08-25T00:05:28;26.90;91.10
8994;DHT22;4532;50.886;4.700;2022-08-25T00:07:59;26.90;91.20
8994;DHT22;4532;50.886;4.700;2022-08-25T00:10:29;26.90;91.20
8994;DHT22;4532;50.886;4.700;2022-08-25T00:12:56;26.80;91.50
8994;DHT22;4532;50.886;4.700;2022-08-25T00:15:24;26.80;91.20
8994;DHT22;4532;50.886;4.700;2022-08-25T00:17:51;26.70;91.20
8994;DHT22;4532;50.886;4.700;2022-08-25T00:20:23;26.70;91.20
8994;DHT22;4532;50.886;4.700;2022-08-25T00:22:56;26.60;91.30
8994;DHT22;4532;50.886;4.700;2022-08-25T00:25:28;26.60;91.60
8994;DHT22;4532;50.886;4.700;2022-08-25T00:27:58;26.50;91.40
8994;DHT22;4532;50.886;4.700;2022-08-25T00:30:27;26.40;91.30
8994;DHT22;4532;50.886;4.700;2022-08-25T00:32:57;26.40;91.40
8994;DHT22;4532;50.886;4.700;2022-08-25T00:35:27;26.40;91.40
8994;DHT22;4532;50.886;4.700;2022-08-25T00:37:57;26.30;91.50
8994;DHT22;4532;50.886;4.700;2022-08-25T00:40:25;26.30;91.50
8994;DHT22;4532;50.886;4.700;2022-08-25T00:42:54;26.20;91.50
8994;DHT22;4532;50.886;4.700;2022-08-25T00:45:22;26.20;91.50
8994;DHT22;4532;50.886;4.700;2022-08-25T00:47:49;26.20;91.50
8994;DHT22;4532;50.886;4.700;2022-08-25T00:50:17;26.10;91.50
8994;DHT22;4532;50.886;4.700;2022-08-25T00:52:51;26.10;91.60
8994;DHT22;4532;50.886;4.700;2022-08-25T00:55:39;26.10;91.60
8994;DHT22;4532;50.886;4.700;2022-08-25T00:58:15;26.10;91.90
8994;DHT22;4532;50.886;4.700;2022-08-25T01:00:52;26.00;91.80
8994;DHT22;4532;50.886;4.700;2022-08-25T01:03:23;26.00;91.70
8994;DHT22;4532;50.886;4.700;2022-08-25T01:06:03;26.00;91.80
8994;DHT22;4532;50.886;4.700;2022-08-25T01:08:32;25.90;91.90
8994;DHT22;4532;50.886;4.700;2022-08-25T01:11:05;25.90;91.90
8994;DHT22;4532;50.886;4.700;2022-08-25T01:13:41;25.90;92.00
8994;DHT22;4532;50.886;4.700;2022-08-25T01:16:12;25.80;92.00
8994;DHT22;4532;50.886;4.700;2022-08-25T01:21:11;25.80;92.00
8994;DHT22;4532;50.886;4.700;2022-08-25T01:23:39;25.70;92.00
8994;DHT22;4532;50.886;4.700;2022-08-25T01:26:11;25.70;92.10
8994;DHT22;4532;50.886;4.700;2022-08-25T01:28:45;25.60;92.00
8994;DHT22;4532;50.886;4.700;2022-08-25T01:31:36;25.60;92.10
8994;DHT22;4532;50.886;4.700;2022-08-25T01:34:05;25.60;92.20
8994;DHT22;4532;50.886;4.700;2022-08-25T01:36:35;25.50;92.10
8994;DHT22;4532;50.886;4.700;2022-08-25T01:39:05;25.50;92.10
8994;DHT22;4532;50.886;4.700;2022-08-25T01:44:07;25.40;92.20
8994;DHT22;4532;50.886;4.700;2022-08-25T01:46:42;25.40;92.30
8994;DHT22;4532;50.886;4.700;2022-08-25T01:49:10;25.40;92.60
8994;DHT22;4532;50.886;4.700;2022-08-25T01:51:50;25.40;92.30
8994;DHT22;4532;50.886;4.700;2022-08-25T01:54:18;25.40;92.30
8994;DHT22;4532;50.886;4.700;2022-08-25T01:56:48;25.30;92.20
8994;DHT22;4532;50.886;4.700;2022-08-25T01:59:19;25.30;92.20
8994;DHT22;4532;50.886;4.700;2022-08-25T02:01:51;25.30;92.20
8994;DHT22;4532;50.886;4.700;2022-08-25T02:04:27;25.30;92.20
8994;DHT22;4532;50.886;4.700;2022-08-25T02:07:02;25.30;92.10
8994;DHT22;4532;50.886;4.700;2022-08-25T02:09:30;25.20;92.10
8994;DHT22;4532;50.886;4.700;2022-08-25T02:11:57;25.20;92.10
8994;DHT22;4532;50.886;4.700;2022-08-25T02:14:25;25.20;92.00
8994;DHT22;4532;50.886;4.700;2022-08-25T02:16:55;25.10;92.00
8994;DHT22;4532;50.886;4.700;2022-08-25T02:19:24;25.10;92.00
8994;DHT22;4532;50.886;4.700;2022-08-25T02:21:52;25.10;92.00
8994;DHT22;4532;50.886;4.700;2022-08-25T02:24:21;25.00;92.00
8994;DHT22;4532;50.886;4.700;2022-08-25T02:26:49;25.00;92.00
8994;DHT22;4532;50.886;4.700;2022-08-25T02:29:16;25.00;92.00
8994;DHT22;4532;50.886;4.700;2022-08-25T02:31:46;25.00;92.00
8994;DHT22;4532;50.886;4.700;2022-08-25T02:34:16;24.90;92.00
8994;DHT22;4532;50.886;4.700;2022-08-25T02:36:43;24.90;92.00
8994;DHT22;4532;50.886;4.700;2022-08-25T02:39:12;24.80;92.00
8994;DHT22;4532;50.886;4.700;2022-08-25T02:41:42;24.80;92.00
8994;DHT22;4532;50.886;4.700;2022-08-25T02:44:15;24.80;92.00
8994;DHT22;4532;50.886;4.700;2022-08-25T02:46:44;24.70;92.00
8994;DHT22;4532;50.886;4.700;2022-08-25T02:49:14;24.70;92.00
8994;DHT22;4532;50.886;4.700;2022-08-25T02:51:41;24.70;92.00
8994;DHT22;4532;50.886;4.700;2022-08-25T02:54:09;24.70;92.00
8994;DHT22;4532;50.886;4.700;2022-08-25T02:56:43;24.70;91.90
8994;DHT22;4532;50.886;4.700;2022-08-25T02:59:10;24.70;91.90
8994;DHT22;4532;50.886;4.700;2022-08-25T03:01:37;24.70;91.90
8994;DHT22;4532;50.886;4.700;2022-08-25T03:04:05;24.70;91.90
8994;DHT22;4532;50.886;4.700;2022-08-25T03:06:33;24.70;92.00
8994;DHT22;4532;50.886;4.700;2022-08-25T03:09:03;24.60;92.00
8994;DHT22;4532;50.886;4.700;2022-08-25T03:11:30;24.60;91.90
8994;DHT22;4532;50.886;4.700;2022-08-25T03:14:00;24.60;91.90
8994;DHT22;4532;50.886;4.700;2022-08-25T03:16:32;24.50;91.90
8994;DHT22;4532;50.886;4.700;2022-08-25T03:19:03;24.50;91.90
8994;DHT22;4532;50.886;4.700;2022-08-25T03:21:31;24.50;91.90
8994;DHT22;4532;50.886;4.700;2022-08-25T03:24:01;24.50;91.90
8994;DHT22;4532;50.886;4.700;2022-08-25T03:26:31;24.50;91.90
8994;DHT22;4532;50.886;4.700;2022-08-25T03:29:16;24.40;91.80
8994;DHT22;4532;50.886;4.700;2022-08-25T03:31:47;24.40;91.80
8994;DHT22;4532;50.886;4.700;2022-08-25T03:34:18;24.40;91.80
8994;DHT22;4532;50.886;4.700;2022-08-25T03:36:50;24.30;91.80
8994;DHT22;4532;50.886;4.700;2022-08-25T03:39:19;24.30;91.70
8994;DHT22;4532;50.886;4.700;2022-08-25T03:41:46;24.30;91.70
8994;DHT22;4532;50.886;4.700;2022-08-25T03:44:15;24.30;91.70
8994;DHT22;4532;50.886;4.700;2022-08-25T03:46:50;24.30;91.70
8994;DHT22;4532;50.886;4.700;2022-08-25T03:49:20;24.20;91.70
8994;DHT22;4532;50.886;4.700;2022-08-25T03:51:50;24.20;91.70
8994;DHT22;4532;50.886;4.700;2022-08-25T03:54:23;24.20;91.60
8994;DHT22;4532;50.886;4.700;2022-08-25T03:56:51;24.20;91.60
8994;DHT22;4532;50.886;4.700;2022-08-25T03:59:21;24.10;91.50
8994;DHT22;4532;50.886;4.700;2022-08-25T04:01:49;24.10;91.50
8994;DHT22;4532;50.886;4.700;2022-08-25T04:04:21;24.10;91.50
8994;DHT22;4532;50.886;4.700;2022-08-25T04:06:48;24.00;91.50
8994;DHT22;4532;50.886;4.700;2022-08-25T04:09:17;24.00;91.50
8994;DHT22;4532;50.886;4.700;2022-08-25T04:11:48;24.00;91.40
8994;DHT22;4532;50.886;4.700;2022-08-25T04:14:21;24.00;91.50
8994;DHT22;4532;50.886;4.700;2022-08-25T04:16:50;24.00;91.50
8994;DHT22;4532;50.886;4.700;2022-08-25T04:19:21;24.00;91.50
8994;DHT22;4532;50.886;4.700;2022-08-25T04:21:51;23.90;91.40
8994;DHT22;4532;50.886;4.700;2022-08-25T04:24:27;23.90;91.40
8994;DHT22;4532;50.886;4.700;2022-08-25T04:26:57;23.90;91.40
8994;DHT22;4532;50.886;4.700;2022-08-25T04:29:25;23.90;91.40
8994;DHT22;4532;50.886;4.700;2022-08-25T04:31:53;23.90;91.40
8994;DHT22;4532;50.886;4.700;2022-08-25T04:34:24;23.80;91.30
8994;DHT22;4532;50.886;4.700;2022-08-25T04:37:03;23.80;91.30
8994;DHT22;4532;50.886;4.700;2022-08-25T04:39:35;23.70;91.30
8994;DHT22;4532;50.886;4.700;2022-08-25T04:42:02;23.70;91.30
8994;DHT22;4532;50.886;4.700;2022-08-25T04:44:34;23.70;91.20
8994;DHT22;4532;50.886;4.700;2022-08-25T04:47:01;23.70;91.20
8994;DHT22;4532;50.886;4.700;2022-08-25T04:49:31;23.60;91.20
8994;DHT22;4532;50.886;4.700;2022-08-25T04:52:01;23.60;91.20
8994;DHT22;4532;50.886;4.700;2022-08-25T04:54:39;23.60;91.20
8994;DHT22;4532;50.886;4.700;2022-08-25T04:57:06;23.50;91.10
8994;DHT22;4532;50.886;4.700;2022-08-25T04:59:33;23.50;91.10
8994;DHT22;4532;50.886;4.700;2022-08-25T05:02:04;23.50;91.10
8994;DHT22;4532;50.886;4.700;2022-08-25T05:04:34;23.50;91.10
8994;DHT22;4532;50.886;4.700;2022-08-25T05:07:04;23.50;91.10
8994;DHT22;4532;50.886;4.700;2022-08-25T05:09:34;23.50;91.10
8994;DHT22;4532;50.886;4.700;2022-08-25T05:12:02;23.50;91.10
8994;DHT22;4532;50.886;4.700;2022-08-25T05:14:31;23.50;91.10
8994;DHT22;4532;50.886;4.700;2022-08-25T05:17:01;23.50;91.20
8994;DHT22;4532;50.886;4.700;2022-08-25T05:19:28;23.50;91.10
8994;DHT22;4532;50.886;4.700;2022-08-25T05:21:58;23.50;91.20
8994;DHT22;4532;50.886;4.700;2022-08-25T05:24:25;23.50;91.20
8994;DHT22;4532;50.886;4.700;2022-08-25T05:26:55;23.50;91.20
8994;DHT22;4532;50.886;4.700;2022-08-25T05:29:27;23.50;91.20
8994;DHT22;4532;50.886;4.700;2022-08-25T05:31:54;23.50;91.20
8994;DHT22;4532;50.886;4.700;2022-08-25T05:34:24;23.50;91.20
8994;DHT22;4532;50.886;4.700;2022-08-25T05:36:51;23.50;91.30
8994;DHT22;4532;50.886;4.700;2022-08-25T05:39:21;23.50;91.30
8994;DHT22;4532;50.886;4.700;2022-08-25T05:41:49;23.50;91.30
8994;DHT22;4532;50.886;4.700;2022-08-25T05:44:16;23.60;91.40
8994;DHT22;4532;50.886;4.700;2022-08-25T05:46:47;23.60;91.40
8994;DHT22;4532;50.886;4.700;2022-08-25T05:49:14;23.60;91.40
8994;DHT22;4532;50.886;4.700;2022-08-25T05:51:44;23.60;91.40
8994;DHT22;4532;50.886;4.700;2022-08-25T05:54:13;23.70;91.40
8994;DHT22;4532;50.886;4.700;2022-08-25T05:56:41;23.60;91.40
8994;DHT22;4532;50.886;4.700;2022-08-25T05:59:08;23.70;91.40
8994;DHT22;4532;50.886;4.700;2022-08-25T06:01:37;23.70;91.40
8994;DHT22;4532;50.886;4.700;2022-08-25T06:04:26;23.70;91.40
8994;DHT22;4532;50.886;4.700;2022-08-25T06:06:55;23.80;91.50
8994;DHT22;4532;50.886;4.700;2022-08-25T06:09:23;23.80;91.50
8994;DHT22;4532;50.886;4.700;2022-08-25T06:11:50;23.90;91.50
8994;DHT22;4532;50.886;4.700;2022-08-25T06:14:24;23.90;91.60
8994;DHT22;4532;50.886;4.700;2022-08-25T06:16:53;24.00;91.60
8994;DHT22;4532;50.886;4.700;2022-08-25T06:19:21;24.00;91.60
8994;DHT22;4532;50.886;4.700;2022-08-25T06:21:54;24.00;91.60
8994;DHT22;4532;50.886;4.700;2022-08-25T06:24:26;24.10;91.60
8994;DHT22;4532;50.886;4.700;2022-08-25T06:26:56;24.20;91.70
8994;DHT22;4532;50.886;4.700;2022-08-25T06:29:23;24.20;91.70
8994;DHT22;4532;50.886;4.700;2022-08-25T06:31:51;24.30;91.70
8994;DHT22;4532;50.886;4.700;2022-08-25T06:34:18;24.30;91.70
8994;DHT22;4532;50.886;4.700;2022-08-25T06:36:50;24.40;91.80
8994;DHT22;4532;50.886;4.700;2022-08-25T06:39:17;24.50;91.80
8994;DHT22;4532;50.886;4.700;2022-08-25T06:41:47;24.50;91.80
8994;DHT22;4532;50.886;4.700;2022-08-25T06:44:16;24.60;91.80
8994;DHT22;4532;50.886;4.700;2022-08-25T06:46:45;24.70;91.90
8994;DHT22;4532;50.886;4.700;2022-08-25T06:49:13;24.70;91.80
8994;DHT22;4532;50.886;4.700;2022-08-25T06:51:42;24.80;91.90
8994;DHT22;4532;50.886;4.700;2022-08-25T06:54:12;24.80;91.90
8994;DHT22;4532;50.886;4.700;2022-08-25T06:56:40;24.90;91.90
8994;DHT22;4532;50.886;4.700;2022-08-25T06:59:10;25.00;91.90
8994;DHT22;4532;50.886;4.700;2022-08-25T07:01:42;25.00;92.00
8994;DHT22;4532;50.886;4.700;2022-08-25T07:04:15;25.00;92.00
8994;DHT22;4532;50.886;4.700;2022-08-25T07:06:45;25.10;91.90
8994;DHT22;4532;50.886;4.700;2022-08-25T07:09:17;25.10;92.00
8994;DHT22;4532;50.886;4.700;2022-08-25T07:11:52;25.20;92.00
8994;DHT22;4532;50.886;4.700;2022-08-25T07:14:22;25.20;92.00
8994;DHT22;4532;50.886;4.700;2022-08-25T07:16:49;25.30;92.00
8994;DHT22;4532;50.886;4.700;2022-08-25T07:19:19;25.30;92.10
8994;DHT22;4532;50.886;4.700;2022-08-25T07:21:49;25.40;92.10
8994;DHT22;4532;50.886;4.700;2022-08-25T07:24:17;25.40;92.10
8994;DHT22;4532;50.886;4.700;2022-08-25T07:26:45;25.50;92.10
8994;DHT22;4532;50.886;4.700;2022-08-25T07:29:20;25.60;92.10
8994;DHT22;4532;50.886;4.700;2022-08-25T07:32:03;25.70;92.20
8994;DHT22;4532;50.886;4.700;2022-08-25T07:34:33;25.70;92.20
8994;DHT22;4532;50.886;4.700;2022-08-25T07:37:21;25.70;92.20
8994;DHT22;4532;50.886;4.700;2022-08-25T07:40:31;25.80;92.20
8994;DHT22;4532;50.886;4.700;2022-08-25T07:43:05;25.90;92.30
8994;DHT22;4532;50.886;4.700;2022-08-25T07:45:37;26.00;92.30
8994;DHT22;4532;50.886;4.700;2022-08-25T07:48:18;26.10;92.40
8994;DHT22;4532;50.886;4.700;2022-08-25T07:50:49;26.10;92.40
8994;DHT22;4532;50.886;4.700;2022-08-25T07:53:19;26.20;92.50
8994;DHT22;4532;50.886;4.700;2022-08-25T07:55:48;26.30;92.50
8994;DHT22;4532;50.886;4.700;2022-08-25T07:58:19;26.30;92.50
8994;DHT22;4532;50.886;4.700;2022-08-25T08:00:48;26.40;92.50
8994;DHT22;4532;50.886;4.700;2022-08-25T08:03:16;26.50;92.60
8994;DHT22;4532;50.886;4.700;2022-08-25T08:06:11;26.60;92.60
8994;DHT22;4532;50.886;4.700;2022-08-25T08:08:43;26.60;92.60
8994;DHT22;4532;50.886;4.700;2022-08-25T08:11:16;26.70;92.60
8994;DHT22;4532;50.886;4.700;2022-08-25T08:13:45;26.70;92.60
8994;DHT22;4532;50.886;4.700;2022-08-25T08:16:18;26.80;92.60
8994;DHT22;4532;50.886;4.700;2022-08-25T08:18:46;26.80;92.60
8994;DHT22;4532;50.886;4.700;2022-08-25T08:21:24;26.90;92.60
8994;DHT22;4532;50.886;4.700;2022-08-25T08:23:59;26.90;92.60
8994;DHT22;4532;50.886;4.700;2022-08-25T08:26:27;27.00;92.60
8994;DHT22;4532;50.886;4.700;2022-08-25T08:29:21;27.10;92.60
8994;DHT22;4532;50.886;4.700;2022-08-25T08:31:53;27.10;92.60
8994;DHT22;4532;50.886;4.700;2022-08-25T08:34:24;27.20;92.70
8994;DHT22;4532;50.886;4.700;2022-08-25T08:36:53;27.30;92.70
8994;DHT22;4532;50.886;4.700;2022-08-25T08:39:21;27.30;92.70
8994;DHT22;4532;50.886;4.700;2022-08-25T08:42:19;27.40;92.60
8994;DHT22;4532;50.886;4.700;2022-08-25T08:44:53;27.40;92.60
8994;DHT22;4532;50.886;4.700;2022-08-25T08:47:46;27.50;92.50
8994;DHT22;4532;50.886;4.700;2022-08-25T08:56:35;27.70;92.60
8994;DHT22;4532;50.886;4.700;2022-08-25T08:59:21;27.70;92.60
8994;DHT22;4532;50.886;4.700;2022-08-25T09:02:00;27.80;92.60
8994;DHT22;4532;50.886;4.700;2022-08-25T09:07:18;27.90;92.70
8994;DHT22;4532;50.886;4.700;2022-08-25T09:09:47;28.00;92.60
8994;DHT22;4532;50.886;4.700;2022-08-25T09:15:38;28.10;92.50
8994;DHT22;4532;50.886;4.700;2022-08-25T09:21:24;28.20;92.40
8994;DHT22;4532;50.886;4.700;2022-08-25T09:24:03;28.20;92.40
8994;DHT22;4532;50.886;4.700;2022-08-25T09:30:10;28.30;92.50
8994;DHT22;4532;50.886;4.700;2022-08-25T09:32:48;28.40;92.40
8994;DHT22;4532;50.886;4.700;2022-08-25T09:35:27;28.40;92.30
8994;DHT22;4532;50.886;4.700;2022-08-25T09:38:08;28.40;92.00
8994;DHT22;4532;50.886;4.700;2022-08-25T09:40:39;28.50;92.20
8994;DHT22;4532;50.886;4.700;2022-08-25T09:43:34;28.60;91.90
8994;DHT22;4532;50.886;4.700;2022-08-25T09:46:14;28.60;91.80
8994;DHT22;4532;50.886;4.700;2022-08-25T09:48:53;28.70;92.10
8994;DHT22;4532;50.886;4.700;2022-08-25T09:56:58;28.80;91.90
8994;DHT22;4532;50.886;4.700;2022-08-25T09:59:36;28.90;92.00
8994;DHT22;4532;50.886;4.700;2022-08-25T10:04:50;29.00;92.00
8994;DHT22;4532;50.886;4.700;2022-08-25T10:07:28;29.00;92.00
8994;DHT22;4532;50.886;4.700;2022-08-25T10:09:58;29.10;92.00
8994;DHT22;4532;50.886;4.700;2022-08-25T10:12:35;29.20;91.90
8994;DHT22;4532;50.886;4.700;2022-08-25T10:17:55;29.20;91.60
8994;DHT22;4532;50.886;4.700;2022-08-25T10:20:26;29.30;91.80
8994;DHT22;4532;50.886;4.700;2022-08-25T10:23:13;29.30;91.60
8994;DHT22;4532;50.886;4.700;2022-08-25T10:25:45;29.30;91.70
8994;DHT22;4532;50.886;4.700;2022-08-25T10:31:35;29.40;91.60
8994;DHT22;4532;50.886;4.700;2022-08-25T10:39:55;29.60;91.20
8994;DHT22;4532;50.886;4.700;2022-08-25T10:42:37;29.60;91.20
8994;DHT22;4532;50.886;4.700;2022-08-25T10:45:16;29.70;91.30
8994;DHT22;4532;50.886;4.700;2022-08-25T10:56:36;29.90;90.90
8994;DHT22;4532;50.886;4.700;2022-08-25T11:05:34;30.10;90.60
8994;DHT22;4532;50.886;4.700;2022-08-25T11:08:25;30.10;90.80
8994;DHT22;4532;50.886;4.700;2022-08-25T11:11:06;30.30;90.50
8994;DHT22;4532;50.886;4.700;2022-08-25T11:13:56;30.30;90.50
8994;DHT22;4532;50.886;4.700;2022-08-25T11:19:19;30.50;91.10
8994;DHT22;4532;50.886;4.700;2022-08-25T11:22:13;30.60;91.00
8994;DHT22;4532;50.886;4.700;2022-08-25T11:27:53;30.70;90.40
8994;DHT22;4532;50.886;4.700;2022-08-25T11:30:21;30.80;90.60
8994;DHT22;4532;50.886;4.700;2022-08-25T11:32:53;30.90;90.70
8994;DHT22;4532;50.886;4.700;2022-08-25T11:35:28;30.90;90.50
8994;DHT22;4532;50.886;4.700;2022-08-25T11:43:26;31.10;90.50
8994;DHT22;4532;50.886;4.700;2022-08-25T11:52:54;31.30;90.40
8994;DHT22;4532;50.886;4.700;2022-08-25T11:57:49;31.40;90.40
8994;DHT22;4532;50.886;4.700;2022-08-25T12:06:30;31.60;90.40
8994;DHT22;4532;50.886;4.700;2022-08-25T12:11:46;31.70;90.10
8994;DHT22;4532;50.886;4.700;2022-08-25T12:30:30;32.00;89.80
8994;DHT22;4532;50.886;4.700;2022-08-25T12:36:08;32.10;89.70
8994;DHT22;4532;50.886;4.700;2022-08-25T12:38:44;32.10;89.70
8994;DHT22;4532;50.886;4.700;2022-08-25T12:41:26;32.20;89.50
8994;DHT22;4532;50.886;4.700;2022-08-25T12:44:31;32.20;89.00
8994;DHT22;4532;50.886;4.700;2022-08-25T12:47:11;32.20;89.10
8994;DHT22;4532;50.886;4.700;2022-08-25T12:49:39;32.20;89.00
8994;DHT22;4532;50.886;4.700;2022-08-25T12:52:21;32.20;88.80
8994;DHT22;4532;50.886;4.700;2022-08-25T12:55:05;32.20;89.20
8994;DHT22;4532;50.886;4.700;2022-08-25T12:57:45;32.30;89.10
8994;DHT22;4532;50.886;4.700;2022-08-25T13:00:19;32.30;88.60
8994;DHT22;4532;50.886;4.700;2022-08-25T13:06:08;32.50;89.00
8994;DHT22;4532;50.886;4.700;2022-08-25T13:08:52;32.60;88.50
8994;DHT22;4532;50.886;4.700;2022-08-25T13:11:34;32.60;88.30
8994;DHT22;4532;50.886;4.700;2022-08-25T13:14:31;32.70;88.20
8994;DHT22;4532;50.886;4.700;2022-08-25T13:17:04;32.80;88.20
8994;DHT22;4532;50.886;4.700;2022-08-25T13:19:35;32.80;88.10
8994;DHT22;4532;50.886;4.700;2022-08-25T13:22:23;32.90;88.30
8994;DHT22;4532;50.886;4.700;2022-08-25T13:24:52;32.90;88.30
8994;DHT22;4532;50.886;4.700;2022-08-25T13:27:34;33.00;88.50
8994;DHT22;4532;50.886;4.700;2022-08-25T13:30:03;33.00;88.30
8994;DHT22;4532;50.886;4.700;2022-08-25T13:32:35;33.10;87.70
8994;DHT22;4532;50.886;4.700;2022-08-25T13:35:22;33.10;86.90
8994;DHT22;4532;50.886;4.700;2022-08-25T13:38:15;33.10;86.10
8994;DHT22;4532;50.886;4.700;2022-08-25T13:40:43;33.00;87.00
8994;DHT22;4532;50.886;4.700;2022-08-25T13:43:12;33.10;87.30
8994;DHT22;4532;50.886;4.700;2022-08-25T13:45:46;33.10;87.10
8994;DHT22;4532;50.886;4.700;2022-08-25T13:48:32;33.10;86.40
8994;DHT22;4532;50.886;4.700;2022-08-25T13:53:39;33.20;86.10
8994;DHT22;4532;50.886;4.700;2022-08-25T13:56:09;33.20;86.30
8994;DHT22;4532;50.886;4.700;2022-08-25T13:58:42;33.30;85.30
8994;DHT22;4532;50.886;4.700;2022-08-25T14:01:16;33.30;85.90
8994;DHT22;4532;50.886;4.700;2022-08-25T14:10:01;33.50;86.60
8994;DHT22;4532;50.886;4.700;2022-08-25T14:17:31;33.70;85.70
8994;DHT22;4532;50.886;4.700;2022-08-25T14:20:16;33.70;84.50
8994;DHT22;4532;50.886;4.700;2022-08-25T14:22:55;33.80;85.90
8994;DHT22;4532;50.886;4.700;2022-08-25T14:25:25;33.80;85.80
8994;DHT22;4532;50.886;4.700;2022-08-25T14:27:55;33.90;85.30
8994;DHT22;4532;50.886;4.700;2022-08-25T14:30:45;33.80;85.20
8994;DHT22;4532;50.886;4.700;2022-08-25T14:33:16;34.00;84.80
8994;DHT22;4532;50.886;4.700;2022-08-25T14:35:49;34.00;84.80
8994;DHT22;4532;50.886;4.700;2022-08-25T14:38:22;34.00;85.40
8994;DHT22;4532;50.886;4.700;2022-08-25T14:40:52;34.00;85.40
8994;DHT22;4532;50.886;4.700;2022-08-25T14:43:20;34.10;85.40
8994;DHT22;4532;50.886;4.700;2022-08-25T14:45:50;34.20;85.70
8994;DHT22;4532;50.886;4.700;2022-08-25T14:48:39;34.20;85.00
8994;DHT22;4532;50.886;4.700;2022-08-25T14:51:11;34.30;84.80
8994;DHT22;4532;50.886;4.700;2022-08-25T14:53:39;34.20;84.60
8994;DHT22;4532;50.886;4.700;2022-08-25T14:56:07;34.20;84.50
8994;DHT22;4532;50.886;4.700;2022-08-25T14:58:39;34.20;84.40
8994;DHT22;4532;50.886;4.700;2022-08-25T15:01:19;34.20;83.70
8994;DHT22;4532;50.886;4.700;2022-08-25T15:04:08;34.20;84.00
8994;DHT22;4532;50.886;4.700;2022-08-25T15:06:41;34.20;82.80
8994;DHT22;4532;50.886;4.700;2022-08-25T15:09:14;34.20;83.50
8994;DHT22;4532;50.886;4.700;2022-08-25T15:11:48;34.20;81.70
8994;DHT22;4532;50.886;4.700;2022-08-25T15:14:18;34.20;82.90
8994;DHT22;4532;50.886;4.700;2022-08-25T15:17:02;34.30;82.30
8994;DHT22;4532;50.886;4.700;2022-08-25T15:19:33;34.30;82.00
8994;DHT22;4532;50.886;4.700;2022-08-25T15:22:00;34.30;82.70
8994;DHT22;4532;50.886;4.700;2022-08-25T15:24:30;34.40;80.80
8994;DHT22;4532;50.886;4.700;2022-08-25T15:27:06;34.30;77.80
8994;DHT22;4532;50.886;4.700;2022-08-25T15:29:38;34.30;81.00
8994;DHT22;4532;50.886;4.700;2022-08-25T15:32:09;34.30;81.60
8994;DHT22;4532;50.886;4.700;2022-08-25T15:34:37;34.30;79.70
8994;DHT22;4532;50.886;4.700;2022-08-25T15:37:07;34.30;77.00
8994;DHT22;4532;50.886;4.700;2022-08-25T15:39:37;34.20;77.70
8994;DHT22;4532;50.886;4.700;2022-08-25T15:42:04;34.20;78.20
8994;DHT22;4532;50.886;4.700;2022-08-25T15:44:34;34.10;78.90
8994;DHT22;4532;50.886;4.700;2022-08-25T15:47:04;34.10;78.40
8994;DHT22;4532;50.886;4.700;2022-08-25T15:49:32;34.10;80.40
8994;DHT22;4532;50.886;4.700;2022-08-25T15:52:01;34.10;79.30
8994;DHT22;4532;50.886;4.700;2022-08-25T15:54:31;34.00;79.50
8994;DHT22;4532;50.886;4.700;2022-08-25T15:56:59;34.00;79.60
8994;DHT22;4532;50.886;4.700;2022-08-25T15:59:26;34.00;78.80
8994;DHT22;4532;50.886;4.700;2022-08-25T16:01:54;34.00;79.20
8994;DHT22;4532;50.886;4.700;2022-08-25T16:04:25;34.00;78.50
8994;DHT22;4532;50.886;4.700;2022-08-25T16:06:56;34.00;79.80
8994;DHT22;4532;50.886;4.700;2022-08-25T16:09:25;34.00;79.90
8994;DHT22;4532;50.886;4.700;2022-08-25T16:11:58;34.00;78.30
8994;DHT22;4532;50.886;4.700;2022-08-25T16:14:37;34.00;80.50
8994;DHT22;4532;50.886;4.700;2022-08-25T16:17:05;33.90;81.70
8994;DHT22;4532;50.886;4.700;2022-08-25T16:19:37;33.90;82.40
8994;DHT22;4532;50.886;4.700;2022-08-25T16:22:06;33.90;82.60
8994;DHT22;4532;50.886;4.700;2022-08-25T16:24:39;33.90;82.90
8994;DHT22;4532;50.886;4.700;2022-08-25T16:27:11;33.80;83.10
8994;DHT22;4532;50.886;4.700;2022-08-25T16:29:43;33.70;83.30
8994;DHT22;4532;50.886;4.700;2022-08-25T16:32:15;33.60;83.60
8994;DHT22;4532;50.886;4.700;2022-08-25T16:34:45;33.60;83.70
8994;DHT22;4532;50.886;4.700;2022-08-25T16:37:13;33.60;84.20
8994;DHT22;4532;50.886;4.700;2022-08-25T16:39:40;33.50;84.40
8994;DHT22;4532;50.886;4.700;2022-08-25T16:42:11;33.50;84.50
8994;DHT22;4532;50.886;4.700;2022-08-25T16:44:47;33.50;84.60
8994;DHT22;4532;50.886;4.700;2022-08-25T16:47:20;33.50;84.80
8994;DHT22;4532;50.886;4.700;2022-08-25T16:49:55;33.40;84.40
8994;DHT22;4532;50.886;4.700;2022-08-25T16:52:27;33.40;84.20
8994;DHT22;4532;50.886;4.700;2022-08-25T16:55:15;33.40;84.20
8994;DHT22;4532;50.886;4.700;2022-08-25T16:57:52;33.30;84.00
8994;DHT22;4532;50.886;4.700;2022-08-25T17:00:25;33.20;83.50
8994;DHT22;4532;50.886;4.700;2022-08-25T17:03:02;33.10;83.60
8994;DHT22;4532;50.886;4.700;2022-08-25T17:05:40;33.00;83.70
8994;DHT22;4532;50.886;4.700;2022-08-25T17:08:08;32.80;84.10
8994;DHT22;4532;50.886;4.700;2022-08-25T17:11:13;32.80;84.00
8994;DHT22;4532;50.886;4.700;2022-08-25T17:13:52;32.70;84.30
8994;DHT22;4532;50.886;4.700;2022-08-25T17:16:24;32.60;84.90
8994;DHT22;4532;50.886;4.700;2022-08-25T17:18:58;32.60;85.10
8994;DHT22;4532;50.886;4.700;2022-08-25T17:21:30;32.60;85.10
8994;DHT22;4532;50.886;4.700;2022-08-25T17:24:04;32.60;85.50
8994;DHT22;4532;50.886;4.700;2022-08-25T17:26:38;32.60;86.50
8994;DHT22;4532;50.886;4.700;2022-08-25T17:29:06;32.50;86.00
8994;DHT22;4532;50.886;4.700;2022-08-25T17:31:35;32.50;86.00
8994;DHT22;4532;50.886;4.700;2022-08-25T17:34:07;32.40;86.20
8994;DHT22;4532;50.886;4.700;2022-08-25T17:36:35;32.40;86.90
8994;DHT22;4532;50.886;4.700;2022-08-25T17:39:06;32.30;86.20
8994;DHT22;4532;50.886;4.700;2022-08-25T17:41:34;32.20;86.80
8994;DHT22;4532;50.886;4.700;2022-08-25T17:44:04;32.20;86.80
8994;DHT22;4532;50.886;4.700;2022-08-25T17:46:31;32.10;87.50
8994;DHT22;4532;50.886;4.700;2022-08-25T17:48:59;32.00;89.60
8994;DHT22;4532;50.886;4.700;2022-08-25T17:51:26;31.90;89.30
8994;DHT22;4532;50.886;4.700;2022-08-25T17:54:03;31.80;87.70
8994;DHT22;4532;50.886;4.700;2022-08-25T17:56:32;31.70;89.20
8994;DHT22;4532;50.886;4.700;2022-08-25T17:59:02;31.60;88.00
8994;DHT22;4532;50.886;4.700;2022-08-25T18:01:33;31.50;88.80
8994;DHT22;4532;50.886;4.700;2022-08-25T18:04:00;31.40;88.50
8994;DHT22;4532;50.886;4.700;2022-08-25T18:06:33;31.40;88.50
8994;DHT22;4532;50.886;4.700;2022-08-25T18:09:04;31.30;88.90
8994;DHT22;4532;50.886;4.700;2022-08-25T18:11:35;31.20;89.00
8994;DHT22;4532;50.886;4.700;2022-08-25T18:14:02;31.20;88.60
8994;DHT22;4532;50.886;4.700;2022-08-25T18:16:30;31.20;89.00
8994;DHT22;4532;50.886;4.700;2022-08-25T18:19:02;31.10;89.40
8994;DHT22;4532;50.886;4.700;2022-08-25T18:21:32;31.00;90.00
8994;DHT22;4532;50.886;4.700;2022-08-25T18:24:02;31.00;89.20
8994;DHT22;4532;50.886;4.700;2022-08-25T18:26:32;30.90;89.80
8994;DHT22;4532;50.886;4.700;2022-08-25T18:28:59;30.80;90.00
8994;DHT22;4532;50.886;4.700;2022-08-25T18:31:34;30.70;90.40
8994;DHT22;4532;50.886;4.700;2022-08-25T18:34:02;30.60;90.30
8994;DHT22;4532;50.886;4.700;2022-08-25T18:36:35;30.50;89.70
8994;DHT22;4532;50.886;4.700;2022-08-25T18:39:05;30.50;89.80
8994;DHT22;4532;50.886;4.700;2022-08-25T18:41:51;30.40;90.00